createdAt,value
2019-05-15T00:03:08.799Z,101283.09
2019-05-15T00:08:12.359Z,101269.80
2019-05-15T00:13:15.819Z,101269.80
2019-05-15T00:18:19.282Z,101273.17
2019-05-15T00:23:22.750Z,101267.61
2019-05-15T00:28:28.038Z,101264.83
2019-05-15T00:38:33.944Z,101261.06
2019-05-15T00:43:38.649Z,101256.89
2019-05-15T00:53:44.730Z,101253.32
2019-05-15T00:58:48.293Z,101247.77
2019-05-15T01:03:51.717Z,101244.98
2019-05-15T01:08:55.184Z,101232.27
2019-05-15T01:13:58.700Z,101223.94
2019-05-15T01:19:02.177Z,101228.11
2019-05-15T01:24:05.645Z,101226.72
2019-05-15T01:29:09.212Z,101223.94
2019-05-15T01:34:12.679Z,101219.57
2019-05-15T01:39:18.327Z,101218.18
2019-05-15T01:44:21.367Z,101214.02
2019-05-15T01:49:24.909Z,101206.89
2019-05-15T01:54:29.025Z,101205.50
2019-05-15T01:59:32.653Z,101205.50
2019-05-15T02:04:36.140Z,101193.59
2019-05-15T02:09:39.603Z,101197.17
2019-05-15T02:14:43.076Z,101188.03
2019-05-15T02:19:48.486Z,101199.75
2019-05-15T02:24:51.837Z,101197.56
2019-05-15T02:30:15.265Z,101193.99
2019-05-15T02:35:00.560Z,101188.23
2019-05-15T02:40:05.182Z,101193.20
2019-05-15T02:45:10.315Z,101189.63
2019-05-15T02:50:14.675Z,101187.84
2019-05-15T02:55:19.665Z,101187.84
2019-05-15T03:00:37.791Z,101186.05
2019-05-15T03:05:29.566Z,101184.66
2019-05-15T03:10:33.200Z,101188.83
2019-05-15T03:15:39.760Z,101183.27
2019-05-15T03:20:41.862Z,101177.52
2019-05-15T03:25:48.910Z,101181.48
2019-05-15T03:31:15.816Z,101186.25
2019-05-15T03:36:01.747Z,101185.46
2019-05-15T03:41:01.562Z,101185.46
2019-05-15T03:46:05.020Z,101188.64
2019-05-15T03:51:09.384Z,101189.23
2019-05-15T03:56:13.071Z,101192.02
2019-05-15T04:01:30.215Z,101190.27
2019-05-15T04:06:21.982Z,101192.41
2019-05-15T04:11:25.439Z,101197.81
2019-05-15T04:16:29.657Z,101199.80
2019-05-15T04:21:33.234Z,101196.22
2019-05-15T04:26:39.436Z,101198.80
2019-05-15T04:31:55.681Z,101202.18
2019-05-15T04:36:49.795Z,101196.42
2019-05-15T04:41:53.494Z,101194.84
2019-05-15T04:46:59.502Z,101197.61
2019-05-15T04:52:03.689Z,101201.78
2019-05-15T04:57:09.268Z,101202.19
2019-05-15T05:02:24.262Z,101206.35
2019-05-15T05:07:18.944Z,101200.80
2019-05-15T05:12:22.485Z,101211.91
2019-05-15T05:17:28.673Z,101218.69
2019-05-15T05:22:31.137Z,101217.30
2019-05-15T05:27:34.604Z,101217.89
2019-05-15T05:32:38.838Z,101217.70
2019-05-15T05:37:42.799Z,101221.86
2019-05-15T05:42:47.999Z,101226.03
2019-05-15T05:47:51.592Z,101216.11
2019-05-15T05:52:55.050Z,101212.73
2019-05-15T05:57:58.528Z,101209.56
2019-05-15T06:03:01.984Z,101201.82
2019-05-15T06:08:07.994Z,101201.82
2019-05-15T06:13:11.613Z,101198.25
2019-05-15T06:18:15.460Z,101204.00
2019-05-15T06:23:23.450Z,101197.66
2019-05-15T06:28:24.581Z,101190.70
2019-05-15T06:33:28.052Z,101189.52
2019-05-15T06:38:31.512Z,101184.55
2019-05-15T06:43:34.975Z,101196.10
2019-05-15T06:48:38.481Z,101199.90
2019-05-15T06:53:41.967Z,101201.10
2019-05-15T06:58:45.433Z,101205.25
2019-05-15T07:03:48.906Z,101195.69
2019-05-15T07:08:52.381Z,101194.76
2019-05-15T07:13:57.907Z,101198.91
2019-05-15T07:19:01.054Z,101193.69
2019-05-15T07:24:04.599Z,101196.48
2019-05-15T07:29:08.083Z,101196.31
2019-05-15T07:34:11.552Z,101190.19
2019-05-15T07:39:15.028Z,101188.02
2019-05-15T07:44:18.984Z,101191.38
2019-05-15T07:49:23.555Z,101181.09
2019-05-15T07:54:28.847Z,101189.41
2019-05-15T07:59:32.222Z,101180.09
2019-05-15T08:04:37.923Z,101172.99
2019-05-15T08:09:40.905Z,101185.86
2019-05-15T08:14:47.355Z,101184.48
2019-05-15T08:19:49.761Z,101174.36
2019-05-15T08:24:53.239Z,101178.14
2019-05-15T08:29:58.103Z,101172.77
2019-05-15T08:35:01.681Z,101169.58
2019-05-15T08:40:08.629Z,101168.56
2019-05-15T08:45:12.445Z,101162.03
2019-05-15T08:50:18.128Z,101158.84
2019-05-15T08:55:21.256Z,101145.93
2019-05-15T09:00:24.900Z,101143.75
2019-05-15T09:05:28.379Z,101146.50
2019-05-15T09:10:31.859Z,101141.94
2019-05-15T09:15:35.332Z,101144.72
2019-05-15T09:20:38.847Z,101144.49
2019-05-15T09:25:42.559Z,101138.55
2019-05-15T09:30:48.136Z,101118.71
2019-05-15T09:35:51.232Z,101118.11
2019-05-15T09:40:54.711Z,101122.48
2019-05-15T09:45:58.491Z,101118.68
2019-05-15T09:51:02.032Z,101114.71
2019-05-15T09:56:07.987Z,101105.78
2019-05-15T10:01:10.925Z,101100.86
2019-05-15T10:06:14.527Z,101088.36
2019-05-15T10:11:19.869Z,101091.53
2019-05-15T10:16:23.516Z,101094.67
2019-05-15T10:21:32.131Z,101084.56
2019-05-15T10:26:32.248Z,101076.22
2019-05-15T10:31:35.724Z,101074.64
2019-05-15T10:36:39.228Z,101067.46
2019-05-15T10:41:42.700Z,101059.52
2019-05-15T10:46:48.240Z,101054.36
2019-05-15T10:51:51.387Z,101056.73
2019-05-15T10:56:54.860Z,101047.81
2019-05-15T11:01:59.094Z,101038.25
2019-05-15T11:07:02.703Z,101044.98
2019-05-15T11:12:08.604Z,101035.07
2019-05-15T11:17:11.382Z,101028.12
2019-05-15T11:22:14.893Z,101026.34
2019-05-15T11:27:19.096Z,101024.95
2019-05-15T11:32:22.703Z,101018.20
2019-05-15T11:37:28.247Z,101013.44
2019-05-15T11:42:31.382Z,101016.81
2019-05-15T11:47:34.861Z,101010.06
2019-05-15T11:52:40.317Z,101011.26
2019-05-15T11:57:47.702Z,101013.63
2019-05-15T12:02:48.987Z,101006.09
2019-05-15T12:07:52.468Z,100997.16
2019-05-15T12:12:55.943Z,100997.33
2019-05-15T12:17:59.421Z,100997.38
2019-05-15T12:23:02.899Z,100988.75
2019-05-15T12:28:09.563Z,100982.30
2019-05-15T12:33:11.648Z,100978.05
2019-05-15T12:38:15.127Z,100980.97
2019-05-15T13:03:39.397Z,100973.69
2019-05-15T13:08:42.876Z,100976.06
2019-05-15T13:13:48.370Z,100971.66
2019-05-15T13:18:51.578Z,100965.12
2019-05-15T13:23:55.043Z,100956.00
2019-05-15T13:28:58.643Z,100952.59
2019-05-15T13:34:02.064Z,100952.77
2019-05-15T13:39:06.692Z,100948.56
2019-05-15T13:44:10.156Z,100946.35
2019-05-15T13:49:13.633Z,100937.22
2019-05-15T13:54:18.739Z,100938.58
2019-05-15T13:59:22.384Z,100930.04
2019-05-15T14:04:25.877Z,100923.25
2019-05-15T14:09:33.904Z,100925.56
2019-05-15T14:14:34.564Z,100923.91
2019-05-15T14:19:38.617Z,100923.30
2019-05-15T14:24:42.198Z,100918.29
2019-05-15T14:29:45.687Z,100921.84
2019-05-15T14:34:51.121Z,100922.39
2019-05-15T14:39:54.771Z,100919.59
2019-05-15T14:44:59.247Z,100912.23
2019-05-15T14:50:03.407Z,100907.23
2019-05-15T14:55:07.631Z,100906.23
2019-05-15T15:00:11.635Z,100902.46
2019-05-15T15:05:15.280Z,100904.45
2019-05-15T15:10:20.122Z,100898.11
2019-05-15T15:15:24.003Z,100901.29
2019-05-15T15:20:28.555Z,100895.57
2019-05-15T15:25:32.228Z,100899.73
2019-05-15T15:30:37.941Z,100902.32
2019-05-15T15:35:40.904Z,100898.56
2019-05-15T15:40:44.390Z,100895.78
2019-05-15T15:45:48.371Z,100890.83
2019-05-15T15:50:51.931Z,100898.56
2019-05-15T15:55:55.411Z,100903.33
2019-05-15T16:00:58.890Z,100889.44
2019-05-15T16:06:02.360Z,100881.30
2019-05-15T16:11:08.310Z,100874.34
2019-05-15T16:16:11.859Z,100861.25
2019-05-15T16:21:15.337Z,100861.19
2019-05-15T16:26:19.462Z,100862.96
2019-05-15T16:31:23.168Z,100869.12
2019-05-15T16:36:26.660Z,100869.50
2019-05-15T16:41:30.120Z,100854.41
2019-05-15T16:46:33.582Z,100838.34
2019-05-15T16:51:38.351Z,100846.21
2019-05-15T16:56:41.964Z,100838.25
2019-05-15T17:01:45.423Z,100835.50
2019-05-15T17:06:49.473Z,100843.30
2019-05-15T17:11:53.017Z,100843.30
2019-05-15T17:16:58.628Z,100843.89
2019-05-15T17:22:01.934Z,100842.31
2019-05-15T17:27:08.282Z,100842.89
2019-05-15T17:32:10.864Z,100837.49
2019-05-15T17:37:14.332Z,100834.91
2019-05-15T17:42:18.338Z,100837.68
2019-05-15T17:47:21.900Z,100829.95
2019-05-15T17:52:25.357Z,100832.19
2019-05-15T17:57:28.812Z,100832.59
2019-05-15T18:02:32.278Z,100835.77
2019-05-15T18:07:35.732Z,100834.20
2019-05-15T18:12:39.195Z,100826.45
2019-05-15T18:17:42.660Z,100820.91
2019-05-15T18:22:48.115Z,100820.11
2019-05-15T18:27:51.640Z,100811.61
2019-05-15T18:32:55.175Z,100813.95
2019-05-15T18:37:59.219Z,100811.17
2019-05-15T18:43:02.902Z,100804.83
2019-05-15T18:48:06.353Z,100797.09
2019-05-15T18:53:10.983Z,100798.33
2019-05-15T18:58:19.020Z,100788.41
2019-05-15T19:03:23.434Z,100788.59
2019-05-15T19:08:28.415Z,100781.46
2019-05-15T19:13:31.942Z,100778.69
2019-05-15T19:18:35.402Z,100776.09
2019-05-15T19:23:40.439Z,100774.70
2019-05-15T19:28:44.007Z,100776.70
2019-05-15T19:33:47.495Z,100775.91
2019-05-15T19:38:50.935Z,100771.14
2019-05-15T19:43:57.995Z,100772.53
2019-05-15T19:49:01.050Z,100769.15
2019-05-15T19:54:04.777Z,100774.70
2019-05-15T19:59:08.807Z,100770.70
2019-05-15T20:04:12.388Z,100774.70
2019-05-15T20:09:15.844Z,100774.70
2019-05-15T20:14:19.902Z,100777.30
2019-05-15T20:19:23.383Z,100775.91
2019-05-15T20:24:28.741Z,100774.52
2019-05-15T20:29:32.039Z,100773.31
2019-05-15T20:34:37.818Z,100762.02
2019-05-15T20:39:40.961Z,100753.08
2019-05-15T20:44:44.443Z,100758.45
2019-05-15T20:49:48.507Z,100758.03
2019-05-15T20:54:52.151Z,100753.67
2019-05-15T20:59:55.648Z,100742.56
2019-05-15T21:05:00.623Z,100738.39
2019-05-15T21:10:08.517Z,100740.20
2019-05-15T21:15:12.005Z,100736.81
2019-05-15T21:20:17.708Z,100725.70
2019-05-15T21:25:20.869Z,100726.49
2019-05-15T21:30:24.323Z,100716.58
2019-05-15T21:35:30.397Z,100708.25
2019-05-15T21:40:32.990Z,100703.28
2019-05-15T21:45:37.573Z,100692.17
2019-05-15T21:50:41.656Z,100691.98
2019-05-15T21:55:45.388Z,100685.04
2019-05-15T22:00:52.071Z,100676.70
2019-05-15T22:05:58.039Z,100677.49
2019-05-15T22:11:00.958Z,100674.11
2019-05-15T22:16:04.584Z,100668.38
2019-05-15T22:21:08.087Z,100666.19
2019-05-15T22:26:11.505Z,100664.02
2019-05-15T22:31:14.962Z,100659.84
2019-05-15T22:36:18.943Z,100649.33
2019-05-15T22:41:22.468Z,100642.58
2019-05-15T22:46:25.923Z,100635.82
2019-05-15T22:51:29.663Z,100636.42
2019-05-15T22:56:33.212Z,100630.08
2019-05-15T23:01:38.799Z,100627.30
2019-05-15T23:06:41.860Z,100620.16
2019-05-15T23:11:45.318Z,100611.05
2019-05-15T23:16:48.815Z,100610.89
2019-05-15T23:21:52.240Z,100609.50
2019-05-15T23:26:55.703Z,100598.98
2019-05-15T23:31:59.235Z,100595.42
2019-05-15T23:37:02.691Z,100589.86
2019-05-15T23:42:06.148Z,100584.12
2019-05-15T23:47:09.604Z,100577.78
2019-05-15T23:52:13.106Z,100576.38
2019-05-15T23:57:17.959Z,100571.43
